Forside
METAR-TAF:

METAR-TAF

Lufthavne :

Iqaluit, Nunavut, Canada

Breddekreds: 63-45N, længdekreds: 068-33W, højde: 34 m

Aktuelle vejr

Denne rapport blev lavet for 21 minutter siden, kl. 08:46 UTC
Vind 11 kt fra nordvest
Temperatur -33°C
Fugtighed 67%
Tryk 1005 hPa
Sigt: 24.1 km
skyfri

METAR: CYFB 200846Z 31011KT 15SM SKC M33/M37 A2968 RMK SLP058

Tid: 05:07 (09:07 UTC)

Vejrudsigter

Denne rapport blev lavet for 3 timer og 29 minutter siden, kl. 05:38 UTC
Foreløbig gælder fra 20 på 06 UTC til 21 på 06 UTC
Vind 8 kt fra nordvest
Sigt: 10 km
skyfri
ændring
fra 20 på 13 UTC til 20 på 15 UTC
Vind 12 kt fra nordnordvest

TAF: CYFB 200538Z 2006/2106 31008KT P6SM SKC BECMG 2013/2015 33012KT RMK NXT FCST BY 201200Z

Vejrobservationer og prognoser fra mere end 4000 lufthavne (METAR og TAF).

De gule og røde prikker repræsenterer de meteorologiske stationer.

Flyt musen over at se navnet på stationen.

Så klik over at se vejr observationer og prognoser.

At skifte det kort: Klik på de grønne knapper med et sort kors for at zoome ind; på den grønne knap med en bindestreg for at zoome ud; eller på de grønne pile for tilstødende kort.


METAR-TAF: